createdAt,value
2018-07-14T00:00:42.708Z,8.30
2018-07-14T00:03:10.349Z,7.70
2018-07-14T00:05:37.996Z,7.77
2018-07-14T00:08:05.880Z,8.17
2018-07-14T00:10:33.553Z,8.07
2018-07-14T00:13:01.192Z,8.00
2018-07-14T00:15:28.895Z,7.87
2018-07-14T00:17:56.485Z,8.37
2018-07-14T00:20:24.066Z,7.37
2018-07-14T00:22:51.848Z,8.00
2018-07-14T00:25:24.803Z,8.10
2018-07-14T00:27:52.390Z,7.73
2018-07-14T00:30:20.066Z,8.03
2018-07-14T00:32:47.729Z,7.90
2018-07-14T00:35:15.320Z,8.07
2018-07-14T00:37:42.965Z,7.70
2018-07-14T00:40:10.624Z,7.73
2018-07-14T00:42:38.213Z,8.20
2018-07-14T00:45:05.826Z,7.53
2018-07-14T00:47:33.477Z,7.60
2018-07-14T00:50:01.165Z,6.70
2018-07-14T00:52:28.788Z,7.13
2018-07-14T00:54:56.401Z,7.30
2018-07-14T00:57:24.026Z,6.93
2018-07-14T00:59:51.712Z,7.57
2018-07-14T01:02:19.362Z,6.90
2018-07-14T01:04:47.021Z,7.80
2018-07-14T01:07:14.702Z,7.57
2018-07-14T01:09:42.349Z,7.50
2018-07-14T01:12:10.013Z,7.47
2018-07-14T01:14:37.586Z,8.30
2018-07-14T01:17:05.213Z,7.73
2018-07-14T01:19:32.908Z,8.43
2018-07-14T01:22:00.552Z,7.40
2018-07-14T01:24:28.207Z,7.20
2018-07-14T01:26:55.796Z,7.23
2018-07-14T01:29:23.435Z,7.27
2018-07-14T01:31:51.105Z,8.40
2018-07-14T01:34:18.776Z,8.13
2018-07-14T01:36:46.439Z,7.30
2018-07-14T01:39:14.065Z,8.40
2018-07-14T01:41:41.662Z,7.90
2018-07-14T01:44:09.246Z,7.90
2018-07-14T01:46:36.853Z,6.27
2018-07-14T01:49:04.456Z,7.10
2018-07-14T01:51:32.094Z,8.50
2018-07-14T01:53:59.760Z,8.10
2018-07-14T01:56:27.377Z,7.60
2018-07-14T01:58:54.993Z,7.70
2018-07-14T02:01:22.618Z,8.13
2018-07-14T02:03:50.298Z,7.40
2018-07-14T02:06:17.922Z,8.27
2018-07-14T02:08:45.534Z,8.23
2018-07-14T02:11:13.213Z,7.67
2018-07-14T02:13:40.892Z,8.10
2018-07-14T02:16:08.679Z,7.70
2018-07-14T02:18:36.283Z,7.53
2018-07-14T02:21:03.954Z,8.43
2018-07-14T02:23:31.596Z,7.20
2018-07-14T02:25:59.191Z,7.43
2018-07-14T02:28:26.820Z,8.70
2018-07-14T02:30:54.393Z,7.63
2018-07-14T02:33:22.074Z,9.00
2018-07-14T02:35:49.704Z,7.90
2018-07-14T02:38:17.414Z,8.27
2018-07-14T02:40:45.033Z,7.33
2018-07-14T02:43:12.710Z,7.17
2018-07-14T02:45:40.371Z,7.30
2018-07-14T02:48:08.070Z,8.03
2018-07-14T02:50:35.671Z,8.37
2018-07-14T02:53:03.548Z,7.57
2018-07-14T02:55:31.158Z,7.50
2018-07-14T02:57:58.785Z,8.13
2018-07-14T03:00:26.420Z,7.40
2018-07-14T03:02:53.994Z,8.63
2018-07-14T03:05:21.608Z,7.80
2018-07-14T03:07:49.207Z,8.20
2018-07-14T03:10:16.847Z,8.20
2018-07-14T03:12:44.473Z,8.07
2018-07-14T03:15:12.100Z,8.10
2018-07-14T03:17:39.741Z,7.50
2018-07-14T03:20:07.735Z,8.63
2018-07-14T03:22:35.428Z,8.17
2018-07-14T03:25:03.035Z,7.67
2018-07-14T03:27:30.658Z,7.97
2018-07-14T03:29:58.304Z,8.63
2018-07-14T03:32:25.949Z,7.67
2018-07-14T03:34:53.604Z,8.77
2018-07-14T03:37:21.271Z,8.30
2018-07-14T03:39:48.919Z,8.33
2018-07-14T03:42:16.539Z,8.10
2018-07-14T03:44:44.192Z,8.43
2018-07-14T03:47:11.798Z,7.97
2018-07-14T03:49:39.400Z,8.63
2018-07-14T03:52:07.033Z,7.80
2018-07-14T03:54:34.740Z,7.90
2018-07-14T03:57:02.382Z,7.57
2018-07-14T03:59:30.036Z,7.73
2018-07-14T04:01:57.711Z,7.60
2018-07-14T04:04:25.311Z,8.50
2018-07-14T04:06:52.960Z,7.60
2018-07-14T04:09:20.556Z,7.53
2018-07-14T04:11:48.137Z,6.63
2018-07-14T04:14:15.824Z,7.87
2018-07-14T04:16:43.420Z,8.63
2018-07-14T04:19:11.041Z,7.90
2018-07-14T04:21:38.695Z,8.37
2018-07-14T04:24:06.303Z,7.50
2018-07-14T04:26:33.876Z,8.10
2018-07-14T04:29:01.513Z,9.00
2018-07-14T04:31:29.158Z,8.87
2018-07-14T04:33:56.787Z,7.90
2018-07-14T04:36:24.370Z,9.17
2018-07-14T04:38:52.030Z,9.00
2018-07-14T04:41:19.696Z,9.33
2018-07-14T04:43:47.351Z,9.00
2018-07-14T04:46:14.997Z,8.83
2018-07-14T04:48:42.578Z,8.93
2018-07-14T04:51:10.143Z,8.93
2018-07-14T04:53:37.902Z,10.13
2018-07-14T04:56:05.581Z,10.20
2018-07-14T04:58:33.217Z,10.30
2018-07-14T05:01:00.898Z,9.50
2018-07-14T05:03:28.519Z,9.77
2018-07-14T05:05:56.122Z,9.60
2018-07-14T05:08:29.771Z,9.67
2018-07-14T05:10:57.391Z,8.80
2018-07-14T05:13:25.021Z,9.27
2018-07-14T05:15:52.645Z,10.27
2018-07-14T05:18:20.282Z,8.90
2018-07-14T05:20:47.960Z,9.30
2018-07-14T05:23:15.598Z,8.70
2018-07-14T05:25:43.226Z,9.70
2018-07-14T05:28:10.814Z,9.60
2018-07-14T05:30:38.458Z,9.73
2018-07-14T05:33:06.103Z,10.03
2018-07-14T05:35:34.210Z,8.50
2018-07-14T05:38:01.947Z,8.13
2018-07-14T05:40:29.731Z,8.53
2018-07-14T05:42:57.397Z,8.87
2018-07-14T05:45:25.054Z,9.03
2018-07-14T05:47:52.736Z,8.20
2018-07-14T05:50:20.369Z,8.60
2018-07-14T05:52:47.973Z,8.73
2018-07-14T05:55:15.569Z,8.40
2018-07-14T05:57:43.144Z,8.80
2018-07-14T06:00:10.836Z,8.43
2018-07-14T06:02:38.588Z,8.10
2018-07-14T06:05:06.232Z,8.63
2018-07-14T06:07:33.832Z,8.60
2018-07-14T06:10:01.460Z,8.90
2018-07-14T06:12:29.043Z,8.57
2018-07-14T06:14:56.796Z,8.47
2018-07-14T06:17:24.472Z,7.27
2018-07-14T06:19:52.142Z,7.13
2018-07-14T06:22:19.796Z,8.27
2018-07-14T06:24:47.401Z,8.10
2018-07-14T06:27:15.053Z,8.10
2018-07-14T06:29:42.712Z,8.27
2018-07-14T06:32:10.369Z,7.97
2018-07-14T06:34:37.989Z,7.63
2018-07-14T06:37:05.639Z,7.70
2018-07-14T06:39:33.238Z,7.90
2018-07-14T06:42:00.881Z,8.27
2018-07-14T06:44:28.563Z,7.63
2018-07-14T06:46:56.220Z,7.40
2018-07-14T06:49:23.875Z,7.67
2018-07-14T06:51:51.536Z,7.83
2018-07-14T06:54:19.206Z,6.83
2018-07-14T06:56:46.858Z,6.73
2018-07-14T06:59:14.503Z,7.60
2018-07-14T07:01:42.170Z,6.10
2018-07-14T07:04:10.139Z,6.77
2018-07-14T07:06:37.824Z,6.83
2018-07-14T07:09:05.565Z,6.90
2018-07-14T07:11:33.207Z,6.03
2018-07-14T07:14:00.817Z,7.00
2018-07-14T07:16:28.542Z,7.20
2018-07-14T07:18:56.158Z,6.77
2018-07-14T07:21:23.830Z,6.53
2018-07-14T07:23:51.454Z,6.40
2018-07-14T07:26:19.107Z,6.97
2018-07-14T07:28:46.817Z,6.50
2018-07-14T07:31:14.449Z,5.80
2018-07-14T07:33:42.201Z,6.73
2018-07-14T07:36:09.857Z,6.90
2018-07-14T07:38:37.495Z,6.13
2018-07-14T07:41:05.130Z,5.73
2018-07-14T07:43:32.751Z,5.90
2018-07-14T07:46:00.380Z,6.30
2018-07-14T07:48:27.978Z,5.63
2018-07-14T07:50:55.589Z,5.70
2018-07-14T07:53:23.213Z,5.87
2018-07-14T07:55:50.827Z,5.17
2018-07-14T07:58:18.436Z,5.10
2018-07-14T08:00:46.073Z,6.47
2018-07-14T08:03:13.703Z,5.70
2018-07-14T08:05:41.321Z,6.70
2018-07-14T08:08:08.951Z,5.43
2018-07-14T08:10:36.575Z,5.60
2018-07-14T08:13:04.242Z,5.77
2018-07-14T08:15:31.858Z,5.03
2018-07-14T08:17:59.533Z,5.73
2018-07-14T08:20:27.130Z,5.37
2018-07-14T08:22:54.829Z,5.63
2018-07-14T08:25:22.358Z,6.00
2018-07-14T08:27:49.928Z,5.53
2018-07-14T08:30:17.545Z,5.17
2018-07-14T08:32:45.162Z,5.57
2018-07-14T08:35:12.792Z,5.47
2018-07-14T08:37:40.385Z,5.77
2018-07-14T08:40:07.965Z,5.70
2018-07-14T08:42:35.599Z,5.80
2018-07-14T08:45:03.281Z,4.87
2018-07-14T08:47:30.885Z,5.33
2018-07-14T08:49:58.453Z,5.67
2018-07-14T08:52:26.092Z,6.30
2018-07-14T08:57:27.887Z,5.90
2018-07-14T08:59:55.455Z,5.20
2018-07-14T09:02:23.080Z,4.60
2018-07-14T09:04:50.698Z,5.00
2018-07-14T09:07:18.285Z,4.87
2018-07-14T09:09:45.860Z,5.03
2018-07-14T09:12:13.515Z,6.03
2018-07-14T09:14:41.070Z,5.33
2018-07-14T09:17:08.621Z,4.40
2018-07-14T09:19:36.200Z,4.47
2018-07-14T09:22:03.841Z,4.93
2018-07-14T09:24:31.515Z,4.53
2018-07-14T09:26:59.130Z,4.17
2018-07-14T09:29:26.698Z,4.90
2018-07-14T09:31:54.300Z,4.60
2018-07-14T09:34:22.253Z,4.40
2018-07-14T09:36:49.833Z,4.00
2018-07-14T09:39:24.245Z,4.73
2018-07-14T09:41:51.845Z,4.37
2018-07-14T09:44:19.551Z,4.77
2018-07-14T09:46:47.124Z,4.60
2018-07-14T09:49:14.719Z,4.20
2018-07-14T09:51:42.303Z,3.73
2018-07-14T09:54:09.898Z,4.17
2018-07-14T09:56:37.493Z,3.90
2018-07-14T09:59:05.128Z,3.90
2018-07-14T10:01:32.760Z,4.20
2018-07-14T10:04:00.381Z,3.90
2018-07-14T10:06:27.988Z,4.03
2018-07-14T10:08:55.644Z,3.10
2018-07-14T10:11:23.288Z,4.40
2018-07-14T10:13:50.929Z,3.63
2018-07-14T10:16:18.636Z,3.80
2018-07-14T10:18:46.248Z,4.00
2018-07-14T10:21:13.920Z,3.90
2018-07-14T10:23:41.546Z,3.80
2018-07-14T10:26:09.170Z,3.63
2018-07-14T10:28:36.757Z,3.67
2018-07-14T10:31:04.372Z,3.40
2018-07-14T10:33:32.120Z,3.90
2018-07-14T10:35:59.676Z,3.93
2018-07-14T10:38:27.350Z,4.10
2018-07-14T10:40:54.997Z,3.47
2018-07-14T10:43:22.658Z,4.00
2018-07-14T10:45:50.296Z,3.40
2018-07-14T10:48:17.913Z,4.40
2018-07-14T10:50:45.551Z,3.70
2018-07-14T10:53:13.221Z,3.90
2018-07-14T10:55:40.907Z,3.87
2018-07-14T10:58:08.572Z,3.60
2018-07-14T11:00:36.180Z,3.60
2018-07-14T11:03:03.801Z,3.97
2018-07-14T11:05:31.461Z,4.03
2018-07-14T11:07:59.134Z,3.60
2018-07-14T11:10:26.764Z,3.63
2018-07-14T11:12:54.364Z,4.20
2018-07-14T11:15:22.071Z,3.90
2018-07-14T11:17:49.723Z,4.60
2018-07-14T11:20:17.506Z,3.80
2018-07-14T11:22:45.184Z,4.03
2018-07-14T11:25:12.830Z,3.70
2018-07-14T11:27:40.468Z,4.40
2018-07-14T11:30:08.137Z,4.23
2018-07-14T11:32:35.835Z,3.70
2018-07-14T11:35:03.452Z,3.70
2018-07-14T11:37:31.155Z,3.80
2018-07-14T11:39:58.846Z,3.90
2018-07-14T11:42:26.452Z,3.47
2018-07-14T11:44:54.140Z,3.70
2018-07-14T11:47:21.802Z,3.60
2018-07-14T11:49:49.436Z,3.30
2018-07-14T11:52:17.131Z,3.27
2018-07-14T11:54:44.782Z,3.67
2018-07-14T11:57:12.404Z,3.60
2018-07-14T11:59:40.001Z,3.30
2018-07-14T12:02:07.775Z,3.30
2018-07-14T12:04:35.369Z,3.90
2018-07-14T12:07:03.025Z,3.80
2018-07-14T12:09:30.609Z,3.47
2018-07-14T12:11:58.257Z,3.60
2018-07-14T12:14:25.883Z,3.70
2018-07-14T12:16:53.533Z,3.80
2018-07-14T12:19:21.136Z,4.03
2018-07-14T12:21:48.770Z,4.17
2018-07-14T12:24:16.386Z,4.20
2018-07-14T12:26:44.134Z,3.43
2018-07-14T12:29:11.707Z,3.60
2018-07-14T12:31:39.414Z,3.00
2018-07-14T12:34:07.431Z,3.70
2018-07-14T12:36:35.183Z,3.97
2018-07-14T12:39:03.561Z,4.20
2018-07-14T12:41:31.197Z,3.77
2018-07-14T12:43:58.817Z,3.63
2018-07-14T12:46:26.430Z,3.70
2018-07-14T12:48:54.188Z,4.17
2018-07-14T12:51:21.863Z,3.53
2018-07-14T12:53:49.565Z,3.27
2018-07-14T12:56:17.177Z,3.77
2018-07-14T12:58:44.795Z,3.43
2018-07-14T13:01:12.467Z,3.13
2018-07-14T13:03:40.130Z,3.40
2018-07-14T13:06:07.824Z,3.50
2018-07-14T13:08:35.456Z,3.60
2018-07-14T13:11:03.077Z,4.27
2018-07-14T13:13:30.707Z,3.40
2018-07-14T13:15:58.325Z,3.80
2018-07-14T13:18:25.942Z,3.33
2018-07-14T13:20:53.569Z,3.30
2018-07-14T13:23:21.145Z,3.23
2018-07-14T13:25:48.982Z,3.33
2018-07-14T13:28:16.592Z,3.50
2018-07-14T13:30:44.219Z,3.70
2018-07-14T13:33:11.852Z,3.37
2018-07-14T13:35:39.583Z,3.97
2018-07-14T13:38:07.211Z,3.93
2018-07-14T13:40:34.944Z,3.23
2018-07-14T13:43:02.581Z,3.37
2018-07-14T13:45:30.197Z,3.63
2018-07-14T13:47:57.874Z,4.20
2018-07-14T13:50:32.092Z,3.50
2018-07-14T13:52:59.888Z,3.73
2018-07-14T13:55:27.667Z,3.77
2018-07-14T13:57:55.307Z,2.90
2018-07-14T14:00:23.037Z,4.00
2018-07-14T14:02:50.705Z,3.90
2018-07-14T14:05:18.326Z,4.53
2018-07-14T14:07:46.061Z,4.60
2018-07-14T14:10:13.923Z,4.17
2018-07-14T14:12:41.679Z,4.10
2018-07-14T14:15:09.364Z,4.30
2018-07-14T14:17:37.171Z,4.50
2018-07-14T14:20:04.973Z,5.23
2018-07-14T14:22:32.536Z,4.17
2018-07-14T14:25:00.138Z,4.43
2018-07-14T14:27:27.745Z,4.10
2018-07-14T14:29:55.372Z,4.43
2018-07-14T14:32:23.162Z,4.10
2018-07-14T14:34:50.880Z,4.87
2018-07-14T14:37:18.506Z,4.50
2018-07-14T14:39:46.143Z,4.50
2018-07-14T14:42:13.753Z,4.70
2018-07-14T14:44:41.351Z,4.50
2018-07-14T14:47:09.027Z,3.93
2018-07-14T14:49:36.662Z,4.90
2018-07-14T14:52:04.257Z,4.20
2018-07-14T14:54:31.904Z,4.60
2018-07-14T14:56:59.508Z,4.50
2018-07-14T14:59:27.119Z,5.70
2018-07-14T15:01:54.837Z,4.97
2018-07-14T15:04:22.516Z,4.63
2018-07-14T15:06:50.140Z,5.20
2018-07-14T15:09:17.816Z,7.23
2018-07-14T15:11:45.397Z,4.63
2018-07-14T15:14:12.982Z,4.30
2018-07-14T15:16:40.582Z,3.73
2018-07-14T15:19:08.220Z,3.67
2018-07-14T15:21:35.812Z,4.03
2018-07-14T15:24:03.495Z,3.90
2018-07-14T15:26:31.115Z,4.20
2018-07-14T15:28:58.773Z,4.00
2018-07-14T15:31:26.379Z,4.37
2018-07-14T15:33:53.995Z,4.03
2018-07-14T15:36:21.551Z,4.07
2018-07-14T15:38:49.210Z,24.37
2018-07-14T15:41:16.791Z,4.30
2018-07-14T15:43:44.416Z,4.80
2018-07-14T15:46:12.025Z,3.87
2018-07-14T15:48:40.612Z,3.90
2018-07-14T15:51:08.229Z,3.67
2018-07-14T15:53:35.814Z,4.90
2018-07-14T15:56:03.488Z,4.50
2018-07-14T15:58:31.080Z,3.93
2018-07-14T16:00:58.700Z,5.50
2018-07-14T16:03:26.339Z,3.90
2018-07-14T16:05:53.944Z,4.00
2018-07-14T16:08:21.533Z,4.60
2018-07-14T16:10:49.217Z,4.97
2018-07-14T16:13:16.817Z,5.00
2018-07-14T16:15:44.488Z,5.40
2018-07-14T16:18:12.228Z,4.00
2018-07-14T16:20:39.838Z,4.20
2018-07-14T16:23:07.472Z,3.63
2018-07-14T16:25:35.109Z,3.60
2018-07-14T16:28:02.742Z,4.67
2018-07-14T16:30:30.364Z,4.80
2018-07-14T16:32:58.016Z,4.43
2018-07-14T16:35:25.685Z,4.47
2018-07-14T16:37:53.323Z,4.77
2018-07-14T16:40:20.932Z,4.17
2018-07-14T16:42:48.500Z,4.07
2018-07-14T16:45:16.109Z,3.67
2018-07-14T16:47:43.849Z,4.10
2018-07-14T16:50:11.493Z,3.70
2018-07-14T16:52:39.168Z,3.87
2018-07-14T16:55:06.814Z,4.23
2018-07-14T16:57:34.459Z,4.33
2018-07-14T17:00:02.098Z,4.27
2018-07-14T17:02:29.747Z,4.40
2018-07-14T17:04:57.352Z,4.33
2018-07-14T17:07:24.945Z,3.63
2018-07-14T17:09:52.544Z,4.17
2018-07-14T17:12:20.145Z,4.57
2018-07-14T17:14:47.741Z,4.30
2018-07-14T17:17:15.328Z,4.70
2018-07-14T17:19:42.940Z,5.20
2018-07-14T17:22:10.924Z,4.43
2018-07-14T17:24:38.626Z,4.70
2018-07-14T17:27:06.241Z,4.57
2018-07-14T17:29:33.837Z,4.80
2018-07-14T17:32:01.441Z,4.70
2018-07-14T17:34:29.034Z,3.90
2018-07-14T17:36:56.713Z,4.07
2018-07-14T17:39:24.316Z,4.40
2018-07-14T17:41:51.932Z,4.77
2018-07-14T17:46:59.235Z,4.27
2018-07-14T17:49:26.908Z,3.77
2018-07-14T17:51:54.574Z,3.60
2018-07-14T17:54:22.164Z,3.43
2018-07-14T17:56:49.887Z,2.90
2018-07-14T17:59:17.452Z,2.80
2018-07-14T18:01:45.052Z,2.53
2018-07-14T18:04:12.662Z,2.60
2018-07-14T18:06:40.249Z,2.47
2018-07-14T18:09:08.628Z,2.57
2018-07-14T18:11:36.232Z,2.70
2018-07-14T18:14:03.960Z,2.60
2018-07-14T18:16:31.623Z,2.37
2018-07-14T18:18:59.195Z,2.40
2018-07-14T18:21:26.840Z,2.17
2018-07-14T18:23:54.947Z,2.37
2018-07-14T18:26:22.563Z,2.83
2018-07-14T18:28:50.168Z,2.60
2018-07-14T18:31:17.781Z,3.40
2018-07-14T18:33:45.379Z,3.13
2018-07-14T18:36:12.974Z,3.40
2018-07-14T18:38:40.582Z,3.63
2018-07-14T18:41:08.258Z,3.40
2018-07-14T18:43:35.839Z,4.20
2018-07-14T18:46:03.460Z,4.30
2018-07-14T18:48:31.025Z,3.60
2018-07-14T18:50:58.612Z,3.97
2018-07-14T18:53:26.197Z,4.53
2018-07-14T18:55:53.801Z,4.23
2018-07-14T18:58:21.400Z,4.50
2018-07-14T19:00:49.006Z,4.17
2018-07-14T19:03:16.874Z,4.60
2018-07-14T19:05:44.571Z,4.60
2018-07-14T19:08:12.199Z,5.40
2018-07-14T19:10:39.775Z,5.50
2018-07-14T19:13:07.752Z,4.80
2018-07-14T19:15:35.356Z,5.60
2018-07-14T19:18:02.961Z,5.33
2018-07-14T19:20:30.517Z,5.57
2018-07-14T19:22:58.101Z,5.30
2018-07-14T19:25:25.762Z,5.47
2018-07-14T19:27:53.371Z,4.80
2018-07-14T19:30:21.050Z,5.00
2018-07-14T19:32:48.632Z,5.50
2018-07-14T19:35:16.205Z,5.67
2018-07-14T19:37:43.868Z,6.10
2018-07-14T19:40:11.502Z,5.47
2018-07-14T19:42:39.167Z,4.93
2018-07-14T19:45:06.774Z,5.47
2018-07-14T19:47:34.395Z,5.13
2018-07-14T19:50:01.997Z,4.87
2018-07-14T19:52:29.597Z,5.43
2018-07-14T19:54:57.204Z,5.07
2018-07-14T19:57:24.841Z,6.07
2018-07-14T19:59:52.431Z,5.50
2018-07-14T20:02:20.073Z,5.27
2018-07-14T20:04:48.034Z,5.23
2018-07-14T20:07:15.909Z,5.30
2018-07-14T20:09:43.524Z,5.60
2018-07-14T20:12:11.137Z,5.23
2018-07-14T20:14:38.794Z,5.20
2018-07-14T20:17:06.392Z,6.17
2018-07-14T20:19:34.079Z,5.17
2018-07-14T20:22:01.697Z,4.80
2018-07-14T20:24:29.266Z,5.30
2018-07-14T20:26:56.851Z,4.93
2018-07-14T20:29:24.474Z,4.93
2018-07-14T20:31:52.130Z,5.50
2018-07-14T20:34:19.776Z,5.17
2018-07-14T20:36:47.475Z,5.37
2018-07-14T20:39:15.139Z,6.27
2018-07-14T20:41:42.819Z,5.40
2018-07-14T20:44:10.460Z,5.43
2018-07-14T20:46:38.020Z,5.00
2018-07-14T20:49:05.669Z,4.77
2018-07-14T20:51:33.306Z,6.47
2018-07-14T20:54:00.888Z,5.60
2018-07-14T20:56:28.462Z,5.57
2018-07-14T20:58:56.111Z,5.13
2018-07-14T21:01:23.702Z,5.60
2018-07-14T21:03:51.317Z,5.97
2018-07-14T21:06:19.014Z,4.90
2018-07-14T21:08:46.543Z,5.13
2018-07-14T21:11:14.139Z,5.87
2018-07-14T21:13:41.751Z,6.00
2018-07-14T21:16:09.420Z,6.17
2018-07-14T21:18:37.008Z,6.37
2018-07-14T21:21:04.744Z,5.57
2018-07-14T21:23:32.282Z,5.37
2018-07-14T21:25:59.884Z,5.73
2018-07-14T21:28:27.452Z,4.70
2018-07-14T21:30:55.023Z,5.00
2018-07-14T21:33:22.613Z,5.23
2018-07-14T21:35:50.188Z,5.27
2018-07-14T21:38:17.782Z,5.00
2018-07-14T21:40:45.441Z,5.30
2018-07-14T21:43:13.026Z,5.40
2018-07-14T21:45:40.888Z,5.83
2018-07-14T21:48:08.504Z,5.90
2018-07-14T21:50:36.107Z,6.20
2018-07-14T21:53:03.770Z,5.40
2018-07-14T21:55:31.367Z,6.00
2018-07-14T21:57:58.977Z,5.50
2018-07-14T22:00:32.479Z,5.90
2018-07-14T22:03:00.563Z,5.00
2018-07-14T22:05:28.229Z,5.77
2018-07-14T22:07:55.852Z,5.10
2018-07-14T22:10:23.444Z,5.90
2018-07-14T22:12:51.996Z,6.10
2018-07-14T22:15:19.598Z,5.30
2018-07-14T22:17:47.212Z,5.67
2018-07-14T22:20:14.909Z,5.63
2018-07-14T22:22:42.581Z,5.90
2018-07-14T22:25:10.210Z,5.90
2018-07-14T22:27:37.837Z,5.80
2018-07-14T22:30:05.422Z,5.70
2018-07-14T22:32:33.093Z,5.10
2018-07-14T22:35:00.998Z,5.63
2018-07-14T22:37:28.600Z,5.83
2018-07-14T22:39:56.208Z,5.30
2018-07-14T22:42:23.851Z,5.50
2018-07-14T22:44:51.458Z,5.73
2018-07-14T22:47:19.089Z,5.87
2018-07-14T22:49:46.732Z,5.93
2018-07-14T22:52:14.308Z,5.53
2018-07-14T22:54:41.887Z,5.13
2018-07-14T22:57:09.499Z,5.40
2018-07-14T22:59:37.087Z,5.60
2018-07-14T23:02:05.078Z,5.73
2018-07-14T23:04:32.654Z,5.63
2018-07-14T23:07:00.293Z,5.30
2018-07-14T23:09:27.950Z,5.60
2018-07-14T23:11:55.555Z,5.73
2018-07-14T23:14:23.111Z,6.10
2018-07-14T23:16:50.730Z,5.90
2018-07-14T23:19:18.297Z,5.43
2018-07-14T23:21:46.159Z,5.57
2018-07-14T23:24:13.770Z,5.80
2018-07-14T23:26:41.375Z,5.40
2018-07-14T23:29:08.959Z,6.10
2018-07-14T23:31:36.590Z,5.53
2018-07-14T23:34:04.222Z,5.40
2018-07-14T23:36:31.830Z,6.60
2018-07-14T23:38:59.574Z,6.10
2018-07-14T23:41:27.195Z,6.10
2018-07-14T23:43:54.844Z,5.30
2018-07-14T23:46:22.439Z,5.70
2018-07-14T23:48:50.029Z,6.33
2018-07-14T23:51:17.613Z,6.03
2018-07-14T23:53:45.202Z,6.23
2018-07-14T23:56:12.824Z,6.07
2018-07-14T23:58:40.403Z,6.70
